Lytton, Iowa
Current Conditions -  °F | °C
As of 2:55 AM on Thursday 23 Oct 2014 (Local Time) from KSLB Reporting Station
Light Rain Light Rain  
Wind Chill: 57°   Ceiling: 400
Heat Index: 57°   Visibility: 2mi
Dew Point: 55°   Wind: 12mph
Humidity: 94%   Direction: 210°SSW
Pressure: 30.02"   Gusts: 17mph
Location:  42.42°N, 94.86°W
Report Text: KSLB 230755Z AUTO 21010G15KT 2SM -RA OVC004 14/13 A3002 RMK AO2 P0008
Loading
Personal Weather Stations






























Interactive Weather Map
Tropical Storm Tracking
New forecast layout! Learn more

10-Day Weather Forecast

Advertisements
Track Severe Weather on mobile